createdAt,value
2023-01-30T00:00:04.291Z,0
2023-01-30T00:01:05.575Z,0
2023-01-30T00:02:06.390Z,0
2023-01-30T00:03:06.885Z,0
2023-01-30T00:04:07.077Z,0
2023-01-30T00:05:07.672Z,0
2023-01-30T00:06:08.866Z,0
2023-01-30T00:07:08.788Z,0
2023-01-30T00:08:10.309Z,0
2023-01-30T00:09:10.545Z,0
2023-01-30T00:10:10.843Z,0
2023-01-30T00:11:11.525Z,0
2023-01-30T00:12:12.716Z,0
2023-01-30T00:13:13.633Z,0
2023-01-30T00:14:14.581Z,0
2023-01-30T00:15:14.482Z,0
2023-01-30T00:16:15.999Z,0
2023-01-30T00:17:15.929Z,0
2023-01-30T00:18:16.586Z,0
2023-01-30T00:19:17.790Z,0
2023-01-30T00:20:21.399Z,0
2023-01-30T00:21:19.449Z,0
2023-01-30T00:22:20.652Z,0
2023-01-30T00:23:20.876Z,0
2023-01-30T00:24:22.382Z,0
2023-01-30T00:25:23.465Z,0
2023-01-30T00:26:23.367Z,0
2023-01-30T00:27:23.616Z,0
2023-01-30T00:28:23.692Z,0
2023-01-30T00:29:25.178Z,0
2023-01-30T00:30:25.641Z,0
2023-01-30T00:31:26.418Z,0
2023-01-30T00:32:26.608Z,0
2023-01-30T00:33:27.692Z,0
2023-01-30T00:34:27.886Z,0
2023-01-30T00:35:28.480Z,0
2023-01-30T00:36:28.217Z,0
2023-01-30T00:37:29.251Z,0
2023-01-30T00:38:30.834Z,0
2023-01-30T00:39:30.474Z,0
2023-01-30T00:40:32.087Z,0
2023-01-30T00:41:32.005Z,0
2023-01-30T00:42:32.933Z,0
2023-01-30T00:43:33.585Z,0
2023-01-30T00:44:35.084Z,0
2023-01-30T00:45:36.035Z,0
2023-01-30T00:46:35.975Z,0
2023-01-30T00:47:37.091Z,0
2023-01-30T00:48:37.348Z,0
2023-01-30T00:49:38.443Z,0
2023-01-30T00:50:38.042Z,0
2023-01-30T00:51:37.990Z,0
2023-01-30T00:52:39.221Z,0
2023-01-30T00:53:40.441Z,0
2023-01-30T00:54:39.880Z,0
2023-01-30T00:55:41.081Z,0
2023-01-30T00:56:42.000Z,0
2023-01-30T00:57:42.225Z,0
2023-01-30T00:58:42.877Z,0
2023-01-30T00:59:44.365Z,0
2023-01-30T01:00:43.771Z,0
2023-01-30T01:01:44.995Z,0
2023-01-30T01:02:45.331Z,0
2023-01-30T01:03:46.097Z,0
2023-01-30T01:04:47.292Z,0
2023-01-30T01:05:47.742Z,0
2023-01-30T01:06:48.440Z,0
2023-01-30T01:07:49.350Z,0
2023-01-30T01:08:49.953Z,0
2023-01-30T01:09:50.875Z,0
2023-01-30T01:10:52.446Z,0
2023-01-30T01:11:52.694Z,0
2023-01-30T01:12:52.621Z,0
2023-01-30T01:13:53.525Z,0
2023-01-30T01:14:54.700Z,0
2023-01-30T01:15:55.234Z,0
2023-01-30T01:16:55.924Z,0
2023-01-30T01:17:57.172Z,0
2023-01-30T01:18:57.099Z,0
2023-01-30T01:19:58.005Z,0
2023-01-30T01:20:59.357Z,0
2023-01-30T01:21:59.272Z,0
2023-01-30T01:23:00.488Z,0
2023-01-30T01:24:01.050Z,0
2023-01-30T01:25:01.590Z,0
2023-01-30T01:26:01.803Z,0
2023-01-30T01:27:02.143Z,0
2023-01-30T01:28:02.344Z,0
2023-01-30T01:29:02.605Z,0
2023-01-30T01:30:02.804Z,0
2023-01-30T01:31:03.624Z,0
2023-01-30T01:32:04.533Z,0
2023-01-30T01:33:04.801Z,0
2023-01-30T01:34:04.865Z,0
2023-01-30T01:35:05.061Z,0
2023-01-30T01:36:04.789Z,0
2023-01-30T01:37:10.556Z,0
2023-01-30T01:38:06.886Z,0
2023-01-30T01:39:07.255Z,0
2023-01-30T01:40:07.869Z,0
2023-01-30T01:41:08.623Z,0
2023-01-30T01:42:10.025Z,0
2023-01-30T01:43:09.246Z,0
2023-01-30T01:44:09.923Z,0
2023-01-30T01:45:10.855Z,0
2023-01-30T01:46:11.128Z,0
2023-01-30T01:47:12.370Z,0
2023-01-30T01:48:11.726Z,0
2023-01-30T01:49:12.655Z,0
2023-01-30T01:50:14.192Z,0
2023-01-30T01:51:14.219Z,0
2023-01-30T01:52:15.180Z,0
2023-01-30T01:53:15.839Z,0
2023-01-30T01:54:17.367Z,0
2023-01-30T01:55:17.880Z,0
2023-01-30T01:56:18.174Z,0
2023-01-30T01:57:17.842Z,0
2023-01-30T01:58:19.331Z,0
2023-01-30T01:59:19.534Z,0
2023-01-30T02:00:19.759Z,0
2023-01-30T02:01:20.822Z,0
2023-01-30T02:02:20.533Z,0
2023-01-30T02:03:21.726Z,0
2023-01-30T02:04:22.401Z,0
2023-01-30T02:05:23.009Z,0
2023-01-30T02:06:22.978Z,0
2023-01-30T02:07:24.461Z,0
2023-01-30T02:08:24.380Z,0
2023-01-30T02:09:25.312Z,0
2023-01-30T02:10:25.956Z,0
2023-01-30T02:11:27.252Z,0
2023-01-30T02:12:27.757Z,0
2023-01-30T02:13:27.681Z,0
2023-01-30T02:14:28.616Z,0
2023-01-30T02:15:30.049Z,0
2023-01-30T02:16:29.539Z,0
2023-01-30T02:17:30.037Z,0
2023-01-30T02:18:30.347Z,0
2023-01-30T02:19:30.671Z,0
2023-01-30T02:20:31.902Z,0
2023-01-30T02:21:32.472Z,0
2023-01-30T02:22:32.412Z,0
2023-01-30T02:23:32.618Z,0
2023-01-30T02:24:32.259Z,0
2023-01-30T02:25:33.643Z,0
2023-01-30T02:26:33.513Z,0
2023-01-30T02:27:34.731Z,0
2023-01-30T02:28:35.222Z,0
2023-01-30T02:29:35.176Z,0
2023-01-30T02:30:36.115Z,0
2023-01-30T02:31:36.672Z,0
2023-01-30T02:32:37.029Z,0
2023-01-30T02:33:37.289Z,0
2023-01-30T02:34:37.649Z,0
2023-01-30T02:35:38.287Z,0
2023-01-30T02:36:39.488Z,0
2023-01-30T02:37:39.407Z,0
2023-01-30T02:38:40.048Z,0
2023-01-30T02:39:41.063Z,0
2023-01-30T02:40:42.151Z,0
2023-01-30T02:41:43.449Z,0
2023-01-30T02:42:43.682Z,0
2023-01-30T02:43:44.174Z,0
2023-01-30T02:44:44.102Z,0
2023-01-30T02:45:45.096Z,0
2023-01-30T02:46:46.036Z,0
2023-01-30T02:47:46.859Z,0
2023-01-30T02:48:47.861Z,0
2023-01-30T02:49:48.511Z,0
2023-01-30T02:50:49.733Z,0
2023-01-30T02:51:50.446Z,0
2023-01-30T02:52:51.403Z,0
2023-01-30T02:53:52.063Z,0
2023-01-30T02:54:53.063Z,0
2023-01-30T02:55:54.003Z,0
2023-01-30T02:56:54.942Z,0
2023-01-30T02:57:55.127Z,0
2023-01-30T02:58:55.268Z,0
2023-01-30T02:59:55.182Z,0
2023-01-30T03:00:56.405Z,0
2023-01-30T03:01:57.304Z,0
2023-01-30T03:02:57.553Z,0
2023-01-30T03:03:57.464Z,0
2023-01-30T03:04:58.946Z,0
2023-01-30T03:05:59.163Z,0
2023-01-30T03:06:59.369Z,0
2023-01-30T03:07:59.866Z,0
2023-01-30T03:08:59.744Z,0
2023-01-30T03:10:00.457Z,0
2023-01-30T03:11:01.238Z,0
2023-01-30T03:12:01.952Z,0
2023-01-30T03:13:02.119Z,0
2023-01-30T03:14:02.350Z,0
2023-01-30T03:15:02.855Z,0
2023-01-30T03:16:03.289Z,0
2023-01-30T03:17:03.206Z,0
2023-01-30T03:18:02.747Z,0
2023-01-30T03:19:03.668Z,0
2023-01-30T03:20:04.674Z,0
2023-01-30T03:21:05.600Z,0
2023-01-30T03:22:06.597Z,0
2023-01-30T03:23:06.615Z,0
2023-01-30T03:24:07.987Z,0
2023-01-30T03:25:08.495Z,0
2023-01-30T03:26:08.422Z,0
2023-01-30T03:27:09.384Z,0
2023-01-30T03:28:09.439Z,0
2023-01-30T03:29:10.631Z,0
2023-01-30T03:30:10.530Z,0
2023-01-30T03:31:11.727Z,0
2023-01-30T03:32:11.813Z,0
2023-01-30T03:33:11.730Z,0
2023-01-30T03:34:12.648Z,0
2023-01-30T03:35:13.740Z,0
2023-01-30T03:36:13.958Z,0
2023-01-30T03:37:14.663Z,0
2023-01-30T03:38:15.857Z,0
2023-01-30T03:39:16.484Z,0
2023-01-30T03:40:17.188Z,0
2023-01-30T03:41:17.999Z,0
2023-01-30T03:42:19.777Z,0
2023-01-30T03:43:19.450Z,0
2023-01-30T03:44:21.047Z,0
2023-01-30T03:45:21.620Z,0
2023-01-30T03:46:22.176Z,0
2023-01-30T03:47:22.086Z,0
2023-01-30T03:48:23.600Z,0
2023-01-30T03:49:23.443Z,0
2023-01-30T03:50:24.105Z,0
2023-01-30T03:51:25.035Z,0
2023-01-30T03:52:26.637Z,0
2023-01-30T03:53:26.578Z,0
2023-01-30T03:54:26.530Z,0
2023-01-30T03:55:29.116Z,0
2023-01-30T03:56:28.168Z,0
2023-01-30T03:57:28.372Z,0
2023-01-30T03:58:29.601Z,0
2023-01-30T03:59:30.206Z,0
2023-01-30T04:00:30.385Z,0
2023-01-30T04:01:30.804Z,0
2023-01-30T04:02:31.659Z,0
2023-01-30T04:03:32.161Z,0
2023-01-30T04:04:32.653Z,0
2023-01-30T04:05:33.596Z,0
2023-01-30T04:06:35.749Z,0
2023-01-30T04:07:34.460Z,0
2023-01-30T04:08:35.674Z,0
2023-01-30T04:09:36.603Z,0
2023-01-30T04:10:36.570Z,0
2023-01-30T04:11:37.771Z,0
2023-01-30T04:12:37.804Z,0
2023-01-30T04:13:38.455Z,0
2023-01-30T04:14:40.037Z,0
2023-01-30T04:15:40.255Z,0
2023-01-30T04:16:40.715Z,0
2023-01-30T04:17:41.205Z,0
2023-01-30T04:18:41.397Z,0
2023-01-30T04:19:41.334Z,0
2023-01-30T04:20:42.548Z,0
2023-01-30T04:21:43.461Z,0
2023-01-30T04:22:44.164Z,0
2023-01-30T04:23:45.100Z,0
2023-01-30T04:24:45.023Z,0
2023-01-30T04:25:45.948Z,0
2023-01-30T04:26:47.482Z,0
2023-01-30T04:27:47.692Z,0
2023-01-30T04:28:47.628Z,0
2023-01-30T04:29:49.216Z,0
2023-01-30T04:30:49.656Z,0
2023-01-30T04:31:49.922Z,0
2023-01-30T04:32:50.315Z,0
2023-01-30T04:33:51.763Z,0
2023-01-30T04:34:52.274Z,0
2023-01-30T04:35:51.909Z,0
2023-01-30T04:36:52.836Z,0
2023-01-30T04:37:53.750Z,0
2023-01-30T04:38:54.766Z,0
2023-01-30T04:39:55.244Z,0
2023-01-30T04:40:55.162Z,0
2023-01-30T04:41:55.665Z,0
2023-01-30T04:42:57.222Z,0
2023-01-30T04:43:57.147Z,0
2023-01-30T04:44:57.777Z,0
2023-01-30T04:45:58.132Z,0
2023-01-30T04:46:58.326Z,0
2023-01-30T04:47:59.809Z,0
2023-01-30T04:49:00.015Z,0
2023-01-30T04:50:00.958Z,0
2023-01-30T04:51:01.432Z,0
2023-01-30T04:52:01.936Z,0
2023-01-30T04:53:01.908Z,0
2023-01-30T04:54:02.855Z,0
2023-01-30T04:55:03.521Z,0
2023-01-30T04:56:04.428Z,0
2023-01-30T04:57:05.928Z,0
2023-01-30T04:58:06.419Z,0
2023-01-30T04:59:06.706Z,0
2023-01-30T05:00:07.345Z,0
2023-01-30T05:01:08.152Z,0
2023-01-30T05:02:08.343Z,0
2023-01-30T05:03:09.440Z,0
2023-01-30T05:04:09.074Z,0
2023-01-30T05:05:10.032Z,0
2023-01-30T05:06:11.260Z,0
2023-01-30T05:07:11.517Z,0
2023-01-30T05:08:11.716Z,0
2023-01-30T05:09:11.930Z,0
2023-01-30T05:10:12.169Z,0
2023-01-30T05:11:12.090Z,0
2023-01-30T05:12:13.706Z,0
2023-01-30T05:13:14.096Z,0
2023-01-30T05:14:14.022Z,0
2023-01-30T05:15:16.175Z,0
2023-01-30T05:16:15.341Z,0
2023-01-30T05:17:16.851Z,0
2023-01-30T05:18:17.354Z,0
2023-01-30T05:19:17.302Z,0
2023-01-30T05:20:18.538Z,0
2023-01-30T05:21:19.067Z,0
2023-01-30T05:22:19.278Z,0
2023-01-30T05:23:20.283Z,0
2023-01-30T05:24:20.586Z,0
2023-01-30T05:25:21.296Z,0
2023-01-30T05:26:21.677Z,0
2023-01-30T05:27:21.627Z,0
2023-01-30T05:28:21.841Z,0
2023-01-30T05:29:21.788Z,0
2023-01-30T05:30:23.295Z,0
2023-01-30T05:31:23.723Z,0
2023-01-30T05:32:23.683Z,0
2023-01-30T05:33:24.034Z,0
2023-01-30T05:34:23.989Z,0
2023-01-30T05:35:25.729Z,0
2023-01-30T05:36:25.965Z,0
2023-01-30T05:37:26.206Z,0
2023-01-30T05:38:26.868Z,0
2023-01-30T05:39:27.796Z,0
2023-01-30T05:40:28.034Z,0
2023-01-30T05:41:29.296Z,0
2023-01-30T05:42:29.549Z,0
2023-01-30T05:43:29.259Z,0
2023-01-30T05:44:29.906Z,0
2023-01-30T05:45:32.022Z,0
2023-01-30T05:46:31.929Z,0
2023-01-30T05:47:31.556Z,0
2023-01-30T05:48:33.054Z,0
2023-01-30T05:49:33.584Z,0
2023-01-30T05:50:34.094Z,0
2023-01-30T05:51:34.307Z,0
2023-01-30T05:52:34.528Z,0
2023-01-30T05:53:35.860Z,0
2023-01-30T05:54:36.106Z,0
2023-01-30T05:55:36.578Z,0
2023-01-30T05:56:37.099Z,0
2023-01-30T05:57:37.017Z,0
2023-01-30T05:58:38.290Z,0
2023-01-30T05:59:38.507Z,0
2023-01-30T06:00:39.107Z,0
2023-01-30T06:01:38.753Z,0
2023-01-30T06:02:39.877Z,0
2023-01-30T06:03:39.636Z,0
2023-01-30T06:04:40.747Z,0
2023-01-30T06:05:41.231Z,0
2023-01-30T06:06:41.204Z,0
2023-01-30T06:07:41.853Z,0
2023-01-30T06:08:42.784Z,0
2023-01-30T06:09:43.648Z,0
2023-01-30T06:10:43.860Z,0
2023-01-30T06:11:44.778Z,0
2023-01-30T06:12:45.266Z,0
2023-01-30T06:13:45.414Z,0
2023-01-30T06:14:45.856Z,0
2023-01-30T06:15:46.212Z,0
2023-01-30T06:16:46.748Z,0
2023-01-30T06:17:47.015Z,0
2023-01-30T06:18:47.444Z,0
2023-01-30T06:19:47.667Z,0
2023-01-30T06:20:48.644Z,0
2023-01-30T06:21:49.070Z,0
2023-01-30T06:22:48.752Z,0
2023-01-30T06:23:50.109Z,0
2023-01-30T06:24:50.310Z,0
2023-01-30T06:25:50.551Z,0
2023-01-30T06:26:51.672Z,0
2023-01-30T06:27:51.770Z,0
2023-01-30T06:28:51.775Z,0
2023-01-30T06:29:52.996Z,0
2023-01-30T06:30:54.154Z,0
2023-01-30T06:31:53.591Z,0
2023-01-30T06:32:54.566Z,0
2023-01-30T06:33:54.625Z,0
2023-01-30T06:34:55.841Z,0
2023-01-30T06:35:56.480Z,0
2023-01-30T06:36:56.112Z,0
2023-01-30T06:37:57.388Z,0
2023-01-30T06:38:57.892Z,0
2023-01-30T06:39:57.824Z,0
2023-01-30T06:40:59.062Z,0
2023-01-30T06:41:59.254Z,0
2023-01-30T06:42:58.639Z,5.63
2023-01-30T06:43:59.979Z,5.63
2023-01-30T06:44:59.335Z,5.63
2023-01-30T06:46:01.233Z,5.63
2023-01-30T06:47:01.740Z,5.63
2023-01-30T06:48:01.468Z,11.25
2023-01-30T06:49:02.673Z,11.25
2023-01-30T06:50:02.741Z,11.25
2023-01-30T06:51:02.443Z,11.25
2023-01-30T06:52:03.657Z,11.25
2023-01-30T06:53:03.909Z,11.25
2023-01-30T06:54:04.556Z,11.25
2023-01-30T06:55:04.500Z,11.25
2023-01-30T06:56:05.587Z,11.25
2023-01-30T06:57:06.874Z,11.25
2023-01-30T06:58:07.805Z,11.25
2023-01-30T06:59:08.010Z,11.25
2023-01-30T07:00:08.662Z,11.25
2023-01-30T07:01:10.291Z,11.25
2023-01-30T07:02:11.455Z,11.25
2023-01-30T07:03:11.113Z,11.25
2023-01-30T07:04:12.219Z,11.25
2023-01-30T07:05:12.274Z,11.25
2023-01-30T07:06:12.197Z,11.25
2023-01-30T07:07:13.702Z,16.88
2023-01-30T07:08:13.654Z,16.88
2023-01-30T07:09:14.264Z,16.88
2023-01-30T07:10:23.395Z,22.5
2023-01-30T07:11:15.349Z,22.5
2023-01-30T07:12:15.704Z,28.13
2023-01-30T07:13:16.645Z,28.13
2023-01-30T07:14:18.715Z,28.13
2023-01-30T07:15:18.191Z,28.13
2023-01-30T07:16:18.678Z,28.13
2023-01-30T07:17:18.409Z,28.13
2023-01-30T07:18:19.321Z,33.75
2023-01-30T07:19:19.669Z,33.75
2023-01-30T07:20:20.595Z,33.75
2023-01-30T07:21:21.524Z,33.75
2023-01-30T07:22:21.726Z,33.75
2023-01-30T07:23:21.362Z,33.75
2023-01-30T07:24:22.807Z,39.38
2023-01-30T07:25:23.724Z,39.38
2023-01-30T07:26:24.338Z,39.38
2023-01-30T07:27:24.536Z,39.38
2023-01-30T07:28:24.759Z,45
2023-01-30T07:29:24.476Z,45
2023-01-30T07:30:26.016Z,45
2023-01-30T07:31:26.744Z,45
2023-01-30T07:32:26.703Z,50.63
2023-01-30T07:33:27.922Z,45
2023-01-30T07:34:28.141Z,45
2023-01-30T07:35:28.715Z,45
2023-01-30T07:36:29.224Z,45
2023-01-30T07:37:28.606Z,45
2023-01-30T07:38:29.284Z,45
2023-01-30T07:39:30.488Z,45
2023-01-30T07:40:29.896Z,50.63
2023-01-30T07:41:31.086Z,50.63
2023-01-30T07:42:31.297Z,56.25
2023-01-30T07:43:31.936Z,56.25
2023-01-30T07:44:33.230Z,61.88
2023-01-30T07:45:33.016Z,67.5
2023-01-30T07:46:33.911Z,73.13
2023-01-30T07:47:34.275Z,78.75
2023-01-30T07:48:35.262Z,84.38
2023-01-30T07:49:35.497Z,90
2023-01-30T07:50:35.919Z,101.25
2023-01-30T07:51:35.726Z,129.38
2023-01-30T07:52:36.975Z,168.75
2023-01-30T07:53:37.204Z,123.75
2023-01-30T07:54:37.962Z,90
2023-01-30T07:55:37.959Z,78.75
2023-01-30T07:56:38.194Z,67.5
2023-01-30T07:57:38.137Z,61.88
2023-01-30T07:58:41.294Z,61.88
2023-01-30T07:59:39.558Z,56.25
2023-01-30T08:00:39.877Z,56.25
2023-01-30T08:01:40.833Z,56.25
2023-01-30T08:02:40.805Z,56.25
2023-01-30T08:03:42.069Z,61.88
2023-01-30T08:04:42.188Z,61.88
2023-01-30T08:05:42.424Z,67.5
2023-01-30T08:06:42.402Z,67.5
2023-01-30T08:07:43.320Z,67.5
2023-01-30T08:08:44.609Z,67.5
2023-01-30T08:09:44.826Z,67.5
2023-01-30T08:10:46.077Z,73.13
2023-01-30T08:11:46.058Z,78.75
2023-01-30T08:12:47.256Z,90
2023-01-30T08:13:47.780Z,95.63
2023-01-30T08:14:47.590Z,101.25
2023-01-30T08:15:48.274Z,123.75
2023-01-30T08:16:49.896Z,118.13
2023-01-30T08:17:49.855Z,123.75
2023-01-30T08:18:50.832Z,151.88
2023-01-30T08:19:51.451Z,140.63
2023-01-30T08:20:52.965Z,151.88
2023-01-30T08:21:53.186Z,157.5
2023-01-30T08:22:54.330Z,185.63
2023-01-30T08:23:54.557Z,180
2023-01-30T08:24:55.319Z,196.88
2023-01-30T08:25:55.554Z,219.38
2023-01-30T08:26:55.612Z,213.75
2023-01-30T08:27:56.117Z,219.38
2023-01-30T08:28:56.376Z,208.13
2023-01-30T08:29:56.650Z,213.75
2023-01-30T08:30:56.887Z,202.5
2023-01-30T08:31:58.029Z,191.25
2023-01-30T08:32:57.690Z,180
2023-01-30T08:33:58.887Z,180
2023-01-30T08:34:59.040Z,185.63
2023-01-30T08:36:00.386Z,185.63
2023-01-30T08:37:00.624Z,174.38
2023-01-30T08:38:00.337Z,174.38
2023-01-30T08:39:01.865Z,180
2023-01-30T08:40:01.498Z,196.88
2023-01-30T08:41:02.479Z,219.38
2023-01-30T08:42:02.724Z,270
2023-01-30T08:43:03.248Z,286.88
2023-01-30T08:44:03.183Z,168.75
2023-01-30T08:45:04.216Z,174.38
2023-01-30T08:46:04.842Z,140.63
2023-01-30T08:47:05.404Z,129.38
2023-01-30T08:48:05.338Z,135
2023-01-30T08:49:07.022Z,146.25
2023-01-30T08:50:05.987Z,163.13
2023-01-30T08:51:06.513Z,185.63
2023-01-30T08:52:07.057Z,191.25
2023-01-30T08:53:07.548Z,208.13
2023-01-30T08:54:07.815Z,241.88
2023-01-30T08:55:08.528Z,275.63
2023-01-30T08:56:08.758Z,264.38
2023-01-30T08:57:09.274Z,258.75
2023-01-30T08:58:09.529Z,264.38
2023-01-30T08:59:09.290Z,264.38
2023-01-30T09:00:10.541Z,241.88
2023-01-30T09:01:10.595Z,253.13
2023-01-30T09:02:12.383Z,247.5
2023-01-30T09:03:13.015Z,247.5
2023-01-30T09:04:13.259Z,247.5
2023-01-30T09:05:14.338Z,202.5
2023-01-30T09:06:14.300Z,208.13
2023-01-30T09:07:14.815Z,208.13
2023-01-30T09:08:15.357Z,202.5
2023-01-30T09:09:15.575Z,202.5
2023-01-30T09:10:16.712Z,196.88
2023-01-30T09:11:16.891Z,208.13
2023-01-30T09:12:17.439Z,331.88
2023-01-30T09:13:17.725Z,416.25
2023-01-30T09:14:18.454Z,399.38
2023-01-30T09:15:19.147Z,326.25
2023-01-30T09:16:19.560Z,303.75
2023-01-30T09:17:20.289Z,354.38
2023-01-30T09:18:20.515Z,315
2023-01-30T09:19:21.467Z,292.5
2023-01-30T09:20:22.339Z,331.88
2023-01-30T09:21:22.863Z,348.75
2023-01-30T09:22:22.574Z,466.88
2023-01-30T09:23:23.627Z,264.38
2023-01-30T09:24:24.552Z,241.88
2023-01-30T09:25:26.216Z,264.38
2023-01-30T09:26:26.731Z,331.88
2023-01-30T09:27:26.991Z,298.13
2023-01-30T09:28:27.066Z,371.25
2023-01-30T09:29:28.032Z,258.75
2023-01-30T09:30:30.567Z,225
2023-01-30T09:31:30.722Z,270
2023-01-30T09:32:30.401Z,270
2023-01-30T09:33:30.352Z,241.88
2023-01-30T09:34:31.863Z,219.38
2023-01-30T09:35:32.505Z,208.13
2023-01-30T09:36:32.672Z,191.25
2023-01-30T09:37:33.906Z,180
2023-01-30T09:38:34.286Z,174.38
2023-01-30T09:39:34.523Z,168.75
2023-01-30T09:40:35.486Z,174.38
2023-01-30T09:41:35.438Z,202.5
2023-01-30T09:42:38.043Z,230.63
2023-01-30T09:43:36.342Z,264.38
2023-01-30T09:44:36.323Z,337.5
2023-01-30T09:45:37.361Z,253.13
2023-01-30T09:46:38.815Z,230.63
2023-01-30T09:47:39.542Z,219.38
2023-01-30T09:48:42.540Z,225
2023-01-30T09:49:40.549Z,258.75
2023-01-30T09:50:42.604Z,292.5
2023-01-30T09:51:40.975Z,315
2023-01-30T09:52:42.114Z,315
2023-01-30T09:53:42.331Z,247.5
2023-01-30T09:54:42.291Z,191.25
2023-01-30T09:55:42.107Z,168.75
2023-01-30T09:56:43.114Z,168.75
2023-01-30T09:57:43.518Z,185.63
2023-01-30T09:58:45.072Z,208.13
2023-01-30T09:59:45.024Z,219.38
2023-01-30T10:00:46.132Z,399.38
2023-01-30T10:01:46.707Z,264.38
2023-01-30T10:02:47.510Z,331.88
2023-01-30T10:03:48.554Z,337.5
2023-01-30T10:05:06.753Z,523.13
2023-01-30T10:05:54.531Z,348.75
2023-01-30T10:06:55.756Z,303.75
2023-01-30T10:07:56.294Z,320.63
2023-01-30T10:08:56.624Z,900
2023-01-30T10:09:56.841Z,556.88
2023-01-30T10:11:13.459Z,646.88
2023-01-30T10:11:57.989Z,635.63
2023-01-30T10:12:57.353Z,669.38
2023-01-30T10:13:58.352Z,523.13
2023-01-30T10:14:59.558Z,343.13
2023-01-30T10:15:59.944Z,528.75
2023-01-30T10:17:00.631Z,421.88
2023-01-30T10:18:02.260Z,478.13
2023-01-30T10:19:02.300Z,601.88
2023-01-30T10:20:03.856Z,748.13
2023-01-30T10:21:03.583Z,686.25
2023-01-30T10:22:04.545Z,691.88
2023-01-30T10:23:06.060Z,888.75
2023-01-30T10:24:06.381Z,815.63
2023-01-30T10:25:07.712Z,748.13
2023-01-30T10:26:07.636Z,776.25
2023-01-30T10:27:10.431Z,877.5
2023-01-30T10:28:09.359Z,978.75
2023-01-30T10:29:22.679Z,883.13
2023-01-30T10:30:10.655Z,1074.38
2023-01-30T10:31:12.191Z,618.75
2023-01-30T10:32:12.768Z,466.88
2023-01-30T10:33:13.103Z,225
2023-01-30T10:34:13.372Z,286.88
2023-01-30T10:35:13.883Z,348.75
2023-01-30T10:36:14.069Z,309.38
2023-01-30T10:37:15.699Z,258.75
2023-01-30T10:38:15.753Z,264.38
2023-01-30T10:39:16.974Z,360
2023-01-30T10:40:18.225Z,343.13
2023-01-30T10:41:18.330Z,320.63
2023-01-30T10:42:22.449Z,275.63
2023-01-30T10:43:19.125Z,376.88
2023-01-30T10:44:19.827Z,264.38
2023-01-30T10:45:20.574Z,258.75
2023-01-30T10:46:21.847Z,247.5
2023-01-30T10:47:23.224Z,275.63
2023-01-30T10:48:31.333Z,483.75
2023-01-30T10:49:25.104Z,1771.88
2023-01-30T10:50:24.841Z,1417.5
2023-01-30T10:51:25.070Z,1755
2023-01-30T10:52:26.119Z,798.75
2023-01-30T10:53:26.644Z,2002.5
2023-01-30T10:54:30.474Z,978.75
2023-01-30T10:55:47.284Z,1963.13
2023-01-30T10:56:36.150Z,1957.5
2023-01-30T10:57:36.662Z,1946.25
2023-01-30T10:58:37.208Z,1845
2023-01-30T10:59:37.717Z,1693.13
2023-01-30T11:00:38.516Z,1620
2023-01-30T11:01:39.252Z,1546.88
2023-01-30T11:02:39.728Z,1288.13
2023-01-30T11:03:40.107Z,961.88
2023-01-30T11:04:40.058Z,1006.88
2023-01-30T11:05:40.994Z,1057.5
2023-01-30T11:06:41.637Z,1040.63
2023-01-30T11:07:41.909Z,1096.88
2023-01-30T11:08:42.443Z,1198.13
2023-01-30T11:09:42.689Z,1186.88
2023-01-30T11:10:42.952Z,1198.13
2023-01-30T11:11:43.482Z,1074.38
2023-01-30T11:12:43.740Z,1108.13
2023-01-30T11:13:43.998Z,1389.38
2023-01-30T11:14:47.102Z,1248.75
2023-01-30T11:15:45.398Z,1096.88
2023-01-30T11:16:45.988Z,1175.63
2023-01-30T11:17:46.338Z,1108.13
2023-01-30T11:19:34.117Z,1051.88
2023-01-30T11:19:53.376Z,804.38
2023-01-30T11:20:53.618Z,1080
2023-01-30T11:22:01.206Z,916.88
2023-01-30T11:22:53.458Z,810
2023-01-30T11:23:53.159Z,866.25
2023-01-30T11:24:54.675Z,832.5
2023-01-30T11:26:10.807Z,933.75
2023-01-30T11:27:06.457Z,770.63
2023-01-30T11:28:07.172Z,821.25
2023-01-30T11:29:07.686Z,832.5
2023-01-30T11:30:07.382Z,1040.63
2023-01-30T11:31:07.929Z,1524.38
2023-01-30T11:32:10.020Z,1524.38
2023-01-30T11:33:10.026Z,1271.25
2023-01-30T11:34:10.718Z,922.5
2023-01-30T11:35:12.058Z,641.25
2023-01-30T11:36:16.125Z,1310.63
2023-01-30T11:37:13.313Z,1659.38
2023-01-30T11:38:13.917Z,1693.13
2023-01-30T11:39:13.919Z,1546.88
2023-01-30T11:40:15.252Z,1406.25
2023-01-30T11:41:15.532Z,804.38
2023-01-30T11:42:15.928Z,270
2023-01-30T11:43:15.869Z,675
2023-01-30T11:44:16.525Z,1395
2023-01-30T11:45:32.337Z,495
2023-01-30T11:46:18.017Z,241.88
2023-01-30T11:47:18.643Z,230.63
2023-01-30T11:50:19.682Z,416.25
2023-01-30T11:50:57.703Z,1046.25
2023-01-30T11:51:44.868Z,1085.63
2023-01-30T11:52:45.090Z,1035
2023-01-30T11:53:46.121Z,1276.88
2023-01-30T11:54:46.631Z,922.5
2023-01-30T11:56:02.491Z,371.25
2023-01-30T11:56:47.003Z,421.88
2023-01-30T11:57:47.247Z,939.38
2023-01-30T11:58:47.377Z,1175.63
2023-01-30T11:59:48.615Z,922.5
2023-01-30T12:00:48.552Z,1040.63
2023-01-30T12:01:50.041Z,241.88
2023-01-30T12:02:50.425Z,168.75
2023-01-30T12:03:50.183Z,146.25
2023-01-30T12:04:51.396Z,151.88
2023-01-30T12:05:51.962Z,168.75
2023-01-30T12:06:52.231Z,360
2023-01-30T12:07:52.778Z,225
2023-01-30T12:08:59.705Z,168.75
2023-01-30T12:09:59.713Z,174.38
2023-01-30T12:11:00.006Z,196.88
2023-01-30T12:12:00.210Z,202.5
2023-01-30T12:13:00.738Z,180
2023-01-30T12:14:01.250Z,208.13
2023-01-30T12:15:02.544Z,196.88
2023-01-30T12:16:02.069Z,174.38
2023-01-30T12:17:02.069Z,174.38
2023-01-30T12:18:03.003Z,213.75
2023-01-30T12:19:06.549Z,185.63
2023-01-30T12:20:04.753Z,208.13
2023-01-30T12:21:05.336Z,191.25
2023-01-30T12:22:05.998Z,174.38
2023-01-30T12:23:05.943Z,163.13
2023-01-30T12:24:07.178Z,163.13
2023-01-30T12:25:07.169Z,225
2023-01-30T12:26:08.388Z,354.38
2023-01-30T12:27:09.627Z,298.13
2023-01-30T12:28:09.551Z,247.5
2023-01-30T12:29:10.629Z,213.75
2023-01-30T12:30:11.174Z,275.63
2023-01-30T12:31:11.802Z,562.5
2023-01-30T12:32:11.767Z,230.63
2023-01-30T12:33:13.074Z,208.13
2023-01-30T12:34:13.473Z,191.25
2023-01-30T12:35:13.412Z,180
2023-01-30T12:36:15.003Z,213.75
2023-01-30T12:37:15.317Z,208.13
2023-01-30T12:38:15.586Z,213.75
2023-01-30T12:39:15.967Z,219.38
2023-01-30T12:40:16.635Z,208.13
2023-01-30T12:41:17.805Z,202.5
2023-01-30T12:42:17.753Z,191.25
2023-01-30T12:43:18.434Z,174.38
2023-01-30T12:44:19.665Z,168.75
2023-01-30T12:45:20.516Z,163.13
2023-01-30T12:46:20.459Z,157.5
2023-01-30T12:47:20.755Z,151.88
2023-01-30T12:48:20.976Z,146.25
2023-01-30T12:49:28.697Z,129.38
2023-01-30T12:50:29.812Z,118.13
2023-01-30T12:51:29.795Z,118.13
2023-01-30T12:52:31.475Z,106.88
2023-01-30T12:53:31.687Z,101.25
2023-01-30T12:54:32.729Z,95.63
2023-01-30T12:55:32.220Z,90
2023-01-30T12:56:33.882Z,84.38
2023-01-30T12:57:34.014Z,84.38
2023-01-30T12:58:35.543Z,78.75
2023-01-30T12:59:35.506Z,78.75
2023-01-30T13:00:36.681Z,73.13
2023-01-30T13:01:37.319Z,73.13
2023-01-30T13:02:38.656Z,73.13
2023-01-30T13:03:37.713Z,73.13
2023-01-30T13:04:46.919Z,73.13
2023-01-30T13:05:38.956Z,73.13
2023-01-30T13:06:40.259Z,73.13
2023-01-30T13:07:40.271Z,73.13
2023-01-30T13:08:40.538Z,73.13
2023-01-30T13:09:41.552Z,73.13
2023-01-30T13:10:41.223Z,78.75
2023-01-30T13:11:42.478Z,84.38
2023-01-30T13:12:43.206Z,90
2023-01-30T13:13:43.715Z,151.88
2023-01-30T13:14:44.275Z,101.25
2023-01-30T13:15:44.605Z,106.88
2023-01-30T13:16:44.573Z,112.5
2023-01-30T13:17:44.797Z,112.5
2023-01-30T13:18:45.025Z,123.75
2023-01-30T13:19:56.805Z,286.88
2023-01-30T13:20:45.480Z,191.25
2023-01-30T13:21:46.768Z,106.88
2023-01-30T13:22:48.066Z,101.25
2023-01-30T13:23:48.007Z,118.13
2023-01-30T13:24:49.225Z,135
2023-01-30T13:25:49.756Z,78.75
2023-01-30T13:26:50.084Z,61.88
2023-01-30T13:27:49.813Z,61.88
2023-01-30T13:28:50.750Z,61.88
2023-01-30T13:29:51.465Z,61.88
2023-01-30T13:30:52.440Z,61.88
2023-01-30T13:31:54.722Z,61.88
2023-01-30T13:32:54.177Z,61.88
2023-01-30T13:33:56.107Z,61.88
2023-01-30T13:34:55.369Z,61.88
2023-01-30T13:35:55.595Z,61.88
2023-01-30T13:36:56.133Z,61.88
2023-01-30T13:37:56.688Z,56.25
2023-01-30T13:38:56.919Z,56.25
2023-01-30T13:40:00.674Z,50.63
2023-01-30T13:40:59.461Z,50.63
2023-01-30T13:41:59.465Z,45
2023-01-30T13:43:00.224Z,45
2023-01-30T13:44:00.109Z,45
2023-01-30T13:44:59.913Z,45
2023-01-30T13:46:01.133Z,45
2023-01-30T13:47:02.169Z,45
2023-01-30T13:48:00.868Z,45
2023-01-30T13:49:02.095Z,39.38
2023-01-30T13:50:02.861Z,39.38